.
WxDataArchive / Data Records for 2008-04-06
2008-04-05 April 2008 2008-04-07

Data Records for Sunday, 06 April 2008

Time	Temp	Chill	HIndex	Humid	Dewpt	 Wind 	HiWind	WindDir	Rain 	Barom 
-----	----	-----	------	-----	-----	------	------	-------	-----	----- 
00:00	37.6	37.6	37.6	91	35.2	0	0	---	0.00	29.994 
00:05	37.6	37.6	37.6	91	35.2	0	0	---	0.00	29.993 
00:10	37.6	37.6	37.6	91	35.2	0	0	---	0.00	29.995 
00:15	37.6	37.6	37.6	91	35.2	0	0	---	0.00	29.989 
00:20	37.5	37.5	37.5	91	35.1	0	0	---	0.00	29.990 
00:25	37.3	37.3	37.3	91	34.9	0	0	---	0.00	29.989 
00:30	37.0	37.0	37.0	91	34.6	0	0	---	0.00	29.989 
00:35	36.9	36.9	36.9	91	34.5	0	0	---	0.00	29.988 
00:40	36.9	36.9	36.9	91	34.5	0	0	---	0.00	29.986 
00:45	36.8	36.8	36.8	91	34.4	0	0	---	0.00	29.985 
00:50	36.8	36.8	36.8	91	34.4	0	0	---	0.00	29.986 
00:55	36.9	36.9	36.9	92	34.8	0	0	---	0.00	29.986 
01:00	36.8	36.8	36.8	92	34.7	0	0	---	0.00	29.986 
01:05	36.6	36.6	36.6	92	34.5	0	0	---	0.00	29.985 
01:10	36.3	36.3	36.3	92	34.2	0	0	---	0.00	29.984 
01:15	36.2	36.2	36.2	92	34.1	0	0	---	0.00	29.986 
01:20	36.0	36.0	36.0	92	33.9	0	0	---	0.00	29.985 
01:25	35.9	35.9	35.9	92	33.8	0	0	---	0.00	29.985 
01:30	35.9	35.9	35.9	92	33.8	0	0	---	0.00	29.986 
01:35	35.8	35.8	35.8	92	33.7	0	0	---	0.00	29.986 
01:40	35.6	35.6	35.6	92	33.5	0	0	---	0.00	29.986 
01:45	35.5	35.5	35.5	92	33.4	0	0	---	0.00	29.985 
01:50	35.3	35.3	35.3	92	33.2	0	0	---	0.00	29.986 
01:55	35.2	35.2	35.2	92	33.1	0	0	---	0.00	29.986 
02:00	35.0	35.0	35.0	92	32.9	0	0	---	0.00	29.986 
02:05	35.0	35.0	35.0	93	33.2	0	0	---	0.00	29.988 
02:10	35.0	35.0	35.0	93	33.2	0	0	---	0.00	29.988 
02:15	34.9	34.9	34.9	93	33.1	0	0	---	0.00	29.987 
02:20	34.9	34.9	34.9	93	33.1	0	0	---	0.00	29.988 
02:25	34.7	34.7	34.7	93	32.9	0	0	---	0.00	29.987 
02:30	34.7	34.7	34.7	93	32.9	0	0	---	0.00	29.987 
02:35	34.6	34.6	34.6	93	32.8	0	0	---	0.00	29.987 
02:40	34.4	34.4	34.4	93	32.6	0	0	---	0.00	29.987 
02:45	34.4	34.4	34.4	93	32.6	0	0	---	0.00	29.984 
02:50	34.3	34.3	34.3	93	32.5	0	0	---	0.00	29.981 
02:55	34.3	34.3	34.3	93	32.5	0	0	---	0.00	29.981 
03:00	34.1	34.1	34.1	93	32.3	0	0	---	0.00	29.978 
03:05	34.0	34.0	34.0	93	32.2	0	0	---	0.00	29.976 
03:10	33.8	33.8	33.8	93	32.0	0	0	---	0.00	29.978 
03:15	33.7	33.7	33.7	93	31.9	0	0	---	0.00	29.981 
03:20	33.7	33.7	33.7	93	31.9	0	0	---	0.00	29.983 
03:25	33.5	33.5	33.5	93	31.7	0	0	---	0.00	29.980 
03:30	33.4	33.4	33.4	93	31.6	0	0	---	0.00	29.983 
03:35	33.2	33.2	33.2	94	31.7	0	0	---	0.00	29.984 
03:40	33.2	33.2	33.2	94	31.7	0	0	---	0.00	29.980 
03:45	33.1	33.1	33.1	94	31.6	0	0	---	0.00	29.979 
03:50	33.1	33.1	33.1	94	31.6	0	0	---	0.00	29.979 
03:55	33.1	33.1	33.1	94	31.6	0	0	---	0.00	29.978 
04:00	33.1	33.1	33.1	94	31.6	0	0	---	0.00	29.979 
04:05	33.1	33.1	33.1	94	31.6	0	0	---	0.00	29.983 
04:10	32.9	32.9	32.9	94	31.4	0	0	---	0.00	29.986 
04:15	32.8	32.8	32.8	94	31.3	0	0	---	0.00	29.989 
04:20	32.7	32.7	32.7	94	31.2	0	0	---	0.00	29.990 
04:25	32.5	32.5	32.5	94	31.0	0	0	---	0.00	29.991 
04:30	32.5	32.5	32.5	94	31.0	0	0	---	0.00	29.990 
04:35	32.5	32.5	32.5	94	31.0	0	0	---	0.00	29.991 
04:40	32.5	32.5	32.5	94	31.0	0	0	---	0.00	29.990 
04:45	32.5	32.5	32.5	94	31.0	0	0	---	0.00	29.991 
04:50	32.5	32.5	32.5	94	31.0	0	0	---	0.00	29.990 
04:55	32.5	32.5	32.5	94	31.0	0	0	---	0.00	29.992 
05:00	32.5	32.5	32.5	94	31.0	0	0	---	0.00	29.991 
05:05	32.4	32.4	32.4	94	30.9	0	0	---	0.00	29.992 
05:10	32.2	32.2	32.2	94	30.7	0	0	---	0.00	29.992 
05:15	32.2	32.2	32.2	94	30.7	0	0	---	0.00	29.993 
05:20	32.2	32.2	32.2	95	30.9	0	0	---	0.00	29.994 
05:25	32.4	32.4	32.4	95	31.1	0	0	---	0.00	29.995 
05:30	32.2	32.2	32.2	95	30.9	0	0	---	0.00	29.996 
05:35	31.9	31.9	31.9	94	30.4	0	0	---	0.00	29.996 
05:40	31.9	31.9	31.9	95	30.6	0	0	---	0.00	29.999 
05:45	31.9	31.9	31.9	95	30.6	0	0	---	0.00	30.003 
05:50	31.9	31.9	31.9	95	30.6	0	0	---	0.00	30.004 
05:55	31.8	31.8	31.8	95	30.5	0	0	---	0.00	30.005 
06:00	31.8	31.8	31.8	95	30.5	0	0	---	0.00	30.006 
06:05	31.8	31.8	31.8	95	30.5	0	0	---	0.00	30.008 
06:10	31.8	31.8	31.8	95	30.5	0	0	---	0.00	30.008 
06:15	31.6	31.6	31.6	95	30.3	0	0	---	0.00	30.009 
06:20	31.6	31.6	31.6	95	30.3	0	0	---	0.00	30.007 
06:25	31.5	31.5	31.5	95	30.2	0	0	---	0.00	30.008 
06:30	31.8	31.8	31.8	95	30.5	0	0	---	0.00	30.008 
06:35	31.9	31.9	31.9	95	30.6	0	0	---	0.00	30.009 
06:40	32.1	32.1	32.1	95	30.8	0	0	---	0.00	30.010 
06:45	32.4	32.4	32.4	96	31.4	0	0	---	0.00	30.009 
06:50	32.7	32.7	32.7	96	31.7	0	1	112	0.00	30.008 
06:55	33.5	33.5	33.5	96	32.5	0	2	112	0.00	30.009 
07:00	35.2	35.2	35.2	96	34.2	1	3	112	0.00	30.008 
07:05	36.2	36.2	36.2	96	35.2	1	2	112	0.00	30.013 
07:10	36.9	36.9	36.9	96	35.9	1	3	112	0.00	30.011 
07:15	37.6	37.6	37.6	94	36.0	1	4	112	0.00	30.013 
07:20	38.2	38.2	38.2	92	36.1	1	2	112	0.00	30.016 
07:25	38.9	38.9	38.9	89	35.9	1	4	112	0.00	30.014 
07:30	39.8	39.8	39.8	86	36.0	1	2	112	0.00	30.015 
07:35	40.6	40.6	40.6	84	36.2	1	3	112	0.00	30.019 
07:40	41.3	41.3	41.3	81	35.9	1	3	112	0.00	30.018 
07:45	41.9	41.9	41.9	79	35.9	1	4	112	0.00	30.017 
07:50	42.2	42.2	42.2	77	35.5	2	3	112	0.00	30.020 
07:55	42.8	42.8	42.8	77	36.1	1	3	112	0.00	30.016 
08:00	43.1	43.1	43.1	75	35.7	2	5	135	0.00	30.014 
08:05	43.3	43.3	43.3	73	35.2	2	6	112	0.00	30.013 
08:10	43.8	43.8	43.8	73	35.7	2	4	112	0.00	30.013 
08:15	44.1	44.1	44.1	72	35.7	2	6	112	0.00	30.017 
08:20	44.3	44.3	44.3	70	35.1	2	4	112	0.00	30.018 
08:25	44.8	44.8	44.8	69	35.3	2	6	90	0.00	30.012 
08:30	44.9	44.9	44.9	69	35.4	3	5	112	0.00	30.007 
08:35	45.1	45.1	45.1	70	35.9	2	5	90	0.00	30.006 
08:40	45.5	45.5	45.5	71	36.7	1	5	90	0.00	30.004 
08:45	46.0	46.0	46.0	69	36.4	3	6	112	0.00	30.006 
08:50	46.1	46.1	46.1	69	36.5	3	7	90	0.00	30.005 
08:55	46.7	46.7	46.7	68	36.7	2	4	112	0.00	30.004 
09:00	47.1	47.1	47.1	66	36.3	3	7	112	0.00	30.004 
09:05	47.9	47.9	47.9	65	36.7	3	6	112	0.00	30.006 
09:10	48.6	48.6	48.6	64	37.0	2	7	112	0.00	30.006 
09:15	49.2	49.2	49.2	63	37.1	2	5	112	0.00	30.006 
09:20	49.8	49.8	49.8	63	37.7	2	5	112	0.00	30.004 
09:25	49.9	49.9	49.9	62	37.4	2	5	112	0.00	30.005 
09:30	50.2	50.2	50.2	63	38.1	2	5	112	0.00	30.005 
09:35	50.7	50.7	50.7	61	37.7	3	6	112	0.00	30.008 
09:40	51.0	51.0	51.0	62	38.4	2	7	90	0.00	30.005 
09:45	51.3	51.3	51.3	61	38.3	3	6	112	0.00	30.005 
09:50	51.4	51.4	51.4	61	38.4	3	5	112	0.00	30.005 
09:55	51.7	51.7	51.7	62	39.1	2	5	112	0.00	30.004 
10:00	52.3	52.3	52.3	58	38.0	1	4	68	0.00	30.005 
10:05	52.8	52.8	52.8	58	38.4	2	5	112	0.00	30.006 
10:10	53.3	53.3	53.3	57	38.5	3	6	112	0.00	30.005 
10:15	53.9	53.9	53.9	55	38.1	3	7	90	0.00	30.002 
10:20	54.1	54.1	54.1	56	38.8	3	7	90	0.00	30.002 
10:25	54.4	54.4	54.4	55	38.6	4	9	112	0.00	30.002 
10:30	54.4	54.4	54.4	53	37.6	4	11	112	0.00	30.002 
10:35	54.5	54.5	54.5	56	39.1	3	5	112	0.00	30.003 
10:40	55.0	55.0	55.0	51	37.2	4	10	112	0.00	30.003 
10:45	54.8	54.8	54.8	52	37.5	4	9	112	0.00	30.003 
10:50	55.6	55.6	55.6	51	37.8	3	7	90	0.00	30.002 
10:55	56.2	56.2	56.2	53	39.3	4	9	90	0.00	30.000 
11:00	56.6	56.6	56.6	52	39.2	5	11	112	0.00	29.999 
11:05	56.7	56.7	56.7	53	39.8	4	9	112	0.00	30.000 
11:10	57.2	57.2	57.2	51	39.2	4	11	112	0.00	29.998 
11:15	57.3	57.3	57.3	49	38.3	5	10	112	0.00	29.996 
11:20	57.2	57.2	57.2	45	36.1	4	10	112	0.00	29.990 
11:25	57.3	57.3	57.3	46	36.7	5	9	112	0.00	29.988 
11:30	57.0	57.0	57.0	47	37.0	5	11	112	0.00	29.986 
11:35	56.7	56.7	56.7	46	36.2	6	12	112	0.00	29.988 
11:40	56.9	56.9	56.9	45	35.8	5	11	112	0.00	29.986 
11:45	56.9	56.9	56.9	46	36.3	6	14	112	0.00	29.988 
11:50	56.9	56.9	56.9	47	36.9	5	11	112	0.00	29.987 
11:55	57.0	57.0	57.0	46	36.4	5	11	112	0.00	29.988 
12:00	57.2	57.2	57.2	47	37.2	4	9	90	0.00	29.987 
12:05	57.6	57.6	57.6	45	36.4	6	11	112	0.00	29.988 
12:10	58.0	58.0	58.0	45	36.8	4	10	90	0.00	29.987 
12:15	58.1	58.1	58.1	43	35.7	5	9	112	0.00	29.987 
12:20	58.4	58.4	58.4	44	36.6	4	10	112	0.00	29.986 
12:25	59.0	59.0	59.0	44	37.1	2	5	112	0.00	29.985 
12:30	59.6	59.6	59.6	46	38.8	3	8	112	0.00	29.983 
12:35	59.8	59.8	59.8	42	36.7	4	8	112	0.00	29.982 
12:40	60.1	60.1	60.1	41	36.3	3	6	112	0.00	29.980 
12:45	60.1	60.1	60.1	43	37.5	3	8	112	0.00	29.975 
12:50	60.1	60.1	60.1	38	34.4	4	12	112	0.00	29.976 
12:55	60.4	60.4	60.4	40	36.0	4	7	90	0.00	29.974 
13:00	60.5	60.5	60.5	40	36.1	5	12	112	0.00	29.967 
13:05	60.4	60.4	60.4	40	36.0	5	10	112	0.00	29.969 
13:10	60.4	60.4	60.4	41	36.6	5	12	112	0.00	29.967 
13:15	61.0	61.0	61.0	43	38.3	4	9	90	0.00	29.963 
13:20	61.2	61.2	61.2	41	37.3	5	10	112	0.00	29.960 
13:25	61.3	61.3	61.3	41	37.4	5	9	112	0.00	29.959 
13:30	61.5	61.5	61.5	39	36.3	4	11	112	0.00	29.954 
13:35	61.8	61.8	61.8	42	38.5	3	5	112	0.00	29.954 
13:40	62.0	62.0	62.0	42	38.6	4	9	90	0.00	29.955 
13:45	62.1	62.1	62.1	41	38.1	3	8	112	0.00	29.953 
13:50	62.0	62.0	62.0	40	37.4	4	7	112	0.00	29.952 
13:55	62.1	62.1	62.1	43	39.3	4	7	112	0.00	29.952 
14:00	62.3	62.3	62.3	42	38.9	3	6	112	0.00	29.946 
14:05	62.1	62.1	62.1	43	39.3	5	12	90	0.00	29.942 
14:10	62.0	62.0	62.0	43	39.2	5	11	112	0.00	29.940 
14:15	61.8	61.8	61.8	44	39.7	5	10	112	0.00	29.938 
14:20	62.1	62.1	62.1	45	40.5	6	11	112	0.00	29.938 
14:25	62.1	62.1	62.1	46	41.1	4	11	112	0.00	29.935 
14:30	62.4	62.4	62.4	44	40.2	3	7	112	0.00	29.936 
14:35	62.6	62.6	62.6	45	41.0	3	9	112	0.00	29.936 
14:40	62.7	62.7	62.7	45	41.0	2	6	112	0.00	29.936 
14:45	62.7	62.7	62.7	45	41.0	5	12	112	0.00	29.935 
14:50	62.7	62.7	62.7	45	41.0	3	10	90	0.00	29.931 
14:55	62.7	62.7	62.7	46	41.6	3	10	90	0.00	29.926 
15:00	62.7	62.7	62.7	46	41.6	4	7	112	0.00	29.922 
15:05	62.9	62.9	62.9	46	41.8	3	6	112	0.00	29.920 
15:10	63.1	63.1	63.1	46	42.0	3	7	112	0.00	29.919 
15:15	62.9	62.9	62.9	46	41.8	4	9	112	0.00	29.915 
15:20	62.9	62.9	62.9	46	41.8	4	10	112	0.00	29.910 
15:25	62.7	62.7	62.7	48	42.7	5	10	112	0.00	29.908 
15:30	62.9	62.9	62.9	47	42.4	5	12	112	0.00	29.910 
15:35	62.7	62.7	62.7	48	42.7	4	6	112	0.00	29.908 
15:40	63.1	63.1	63.1	48	43.1	3	10	112	0.00	29.908 
15:45	63.2	63.2	63.2	48	43.2	3	9	112	0.00	29.909 
15:50	63.5	63.5	63.5	50	44.5	3	7	90	0.00	29.908 
15:55	63.1	63.1	63.1	48	43.1	5	12	90	0.00	29.907 
16:00	63.2	63.2	63.2	49	43.7	2	5	112	0.00	29.907 
16:05	63.2	63.2	63.2	47	42.6	4	9	112	0.00	29.906 
16:10	63.1	63.1	63.1	49	43.6	3	9	112	0.00	29.906 
16:15	63.2	63.2	63.2	48	43.2	6	12	112	0.00	29.904 
16:20	63.2	63.2	63.2	48	43.2	5	11	90	0.00	29.904 
16:25	63.1	63.1	63.1	48	43.1	5	11	112	0.00	29.902 
16:30	63.2	63.2	63.2	49	43.7	4	11	112	0.00	29.898 
16:35	63.4	63.4	63.4	48	43.4	3	6	112	0.00	29.898 
16:40	63.5	63.5	63.5	47	42.9	3	7	112	0.00	29.896 
16:45	63.7	63.7	63.7	47	43.1	3	8	112	0.00	29.897 
16:50	63.5	63.5	63.5	47	42.9	4	9	112	0.00	29.899 
16:55	63.4	63.4	63.4	46	42.3	4	10	112	0.00	29.899 
17:00	63.4	63.4	63.4	47	42.8	5	11	90	0.00	29.900 
17:05	63.4	63.4	63.4	47	42.8	3	6	90	0.00	29.902 
17:10	63.4	63.4	63.4	47	42.8	4	9	112	0.00	29.903 
17:15	63.5	63.5	63.5	47	42.9	2	6	90	0.00	29.901 
17:20	63.5	63.5	63.5	47	42.9	2	7	90	0.00	29.901 
17:25	63.4	63.4	63.4	47	42.8	3	6	112	0.00	29.903 
17:30	63.4	63.4	63.4	48	43.4	1	3	112	0.00	29.902 
17:35	63.4	63.4	63.4	48	43.4	2	7	112	0.00	29.896 
17:40	63.4	63.4	63.4	46	42.3	3	9	112	0.00	29.902 
17:45	63.2	63.2	63.2	47	42.6	3	6	112	0.00	29.905 
17:50	63.2	63.2	63.2	47	42.6	2	7	112	0.00	29.903 
17:55	63.2	63.2	63.2	47	42.6	2	6	112	0.00	29.905 
18:00	63.2	63.2	63.2	45	41.5	2	4	68	0.00	29.906 
18:05	63.2	63.2	63.2	46	42.1	2	5	90	0.00	29.902 
18:10	63.1	63.1	63.1	46	42.0	2	5	90	0.00	29.903 
18:15	63.1	63.1	63.1	47	42.5	2	4	90	0.00	29.901 
18:20	62.7	62.7	62.7	48	42.7	1	5	112	0.00	29.898 
18:25	62.6	62.6	62.6	49	43.2	1	3	90	0.00	29.900 
18:30	62.3	62.3	62.3	50	43.4	1	3	135	0.00	29.903 
18:35	62.1	62.1	62.1	50	43.2	1	2	135	0.00	29.905 
18:40	61.8	61.8	61.8	51	43.5	0	2	135	0.00	29.904 
18:45	61.6	61.6	61.6	52	43.8	1	3	112	0.00	29.899 
18:50	61.3	61.3	61.3	53	44.0	0	1	90	0.00	29.898 
18:55	61.0	61.0	61.0	54	44.2	0	2	90	0.00	29.896 
19:00	60.5	60.5	60.5	54	43.8	0	1	90	0.00	29.900 
19:05	60.2	60.2	60.2	55	44.0	0	2	90	0.00	29.896 
19:10	59.5	59.5	59.5	59	45.2	4	11	90	0.00	29.899 
19:15	58.3	58.3	58.3	62	45.3	4	10	112	0.00	29.900 
19:20	57.3	57.3	57.3	64	45.2	4	9	112	0.00	29.899 
19:25	56.7	56.7	56.7	64	44.7	5	12	112	0.00	29.899 
19:30	56.3	56.3	56.3	65	44.7	4	9	112	0.00	29.900 
19:35	55.7	55.7	55.7	66	44.5	4	12	112	0.00	29.900 
19:40	55.3	55.3	55.3	67	44.5	4	7	112	0.00	29.899 
19:45	55.0	55.0	55.0	67	44.2	5	10	112	0.00	29.896 
19:50	54.7	54.7	54.7	67	44.0	3	7	90	0.00	29.897 
19:55	54.4	54.4	54.4	67	43.7	5	10	90	0.00	29.898 
20:00	54.1	54.1	54.1	67	43.4	4	10	112	0.00	29.902 
20:05	53.9	53.9	53.9	68	43.6	4	10	90	0.00	29.899 
20:10	53.5	53.5	53.5	68	43.2	4	9	112	0.00	29.897 
20:15	53.3	53.3	53.3	69	43.4	4	11	112	0.00	29.898 
20:20	53.1	53.1	53.1	69	43.2	4	10	112	0.00	29.900 
20:25	52.8	52.8	52.8	69	42.9	3	8	112	0.00	29.900 
20:30	52.5	52.5	52.5	69	42.6	4	7	90	0.00	29.900 
20:35	52.3	52.3	52.3	69	42.4	3	9	112	0.00	29.903 
20:40	52.0	52.0	52.0	69	42.1	2	7	90	0.00	29.903 
20:45	51.7	51.7	51.7	69	41.9	4	10	90	0.00	29.902 
20:50	51.4	51.4	51.4	69	41.6	4	9	112	0.00	29.903 
20:55	51.1	51.1	51.1	69	41.3	3	6	90	0.00	29.903 
21:00	51.0	51.0	51.0	70	41.6	3	6	90	0.00	29.904 
21:05	50.7	50.7	50.7	71	41.6	3	6	90	0.00	29.902 
21:10	50.2	50.2	50.2	72	41.5	3	5	90	0.00	29.902 
21:15	49.9	49.9	49.9	72	41.2	3	6	90	0.00	29.901 
21:20	49.6	49.6	49.6	72	40.9	2	4	90	0.00	29.902 
21:25	49.4	49.4	49.4	73	41.1	3	7	90	0.00	29.903 
21:30	49.1	49.1	49.1	73	40.8	2	5	112	0.00	29.901 
21:35	48.8	48.8	48.8	73	40.5	3	5	112	0.00	29.901 
21:40	48.6	48.6	48.6	73	40.3	2	5	112	0.00	29.900 
21:45	48.5	48.5	48.5	74	40.6	2	4	90	0.00	29.897 
21:50	48.2	48.2	48.2	74	40.3	1	4	90	0.00	29.896 
21:55	47.9	47.9	47.9	75	40.4	1	4	90	0.00	29.895 
22:00	47.7	47.7	47.7	76	40.5	1	3	112	0.00	29.892 
22:05	47.4	47.4	47.4	76	40.2	2	5	90	0.00	29.887 
22:10	47.3	47.3	47.3	76	40.1	1	3	90	0.00	29.885 
22:15	47.1	47.1	47.1	77	40.3	2	5	90	0.00	29.882 
22:20	47.1	47.1	47.1	77	40.3	2	4	90	0.00	29.881 
22:25	47.0	47.0	47.0	77	40.2	1	4	90	0.00	29.882 
22:30	46.8	46.8	46.8	77	40.0	1	3	90	0.00	29.883 
22:35	46.7	46.7	46.7	77	39.9	1	4	90	0.00	29.882 
22:40	46.5	46.5	46.5	77	39.7	0	2	112	0.00	29.882 
22:45	46.4	46.4	46.4	78	39.9	1	3	112	0.00	29.879 
22:50	46.2	46.2	46.2	78	39.7	1	2	112	0.00	29.880 
22:55	46.1	46.1	46.1	79	40.0	1	3	112	0.00	29.878 
23:00	46.0	46.0	46.0	79	39.9	1	3	90	0.00	29.877 
23:05	45.8	45.8	45.8	79	39.7	1	2	90	0.00	29.878 
23:10	45.8	45.8	45.8	79	39.7	1	2	90	0.00	29.876 
23:15	45.5	45.5	45.5	80	39.7	1	2	90	0.00	29.875 
23:20	45.4	45.4	45.4	80	39.6	1	2	90	0.00	29.872 
23:25	45.2	45.2	45.2	80	39.4	1	2	90	0.00	29.870 
23:30	45.1	45.1	45.1	81	39.6	1	3	90	0.00	29.869 
23:35	44.9	44.9	44.9	81	39.4	1	2	90	0.00	29.868 
23:40	44.9	44.9	44.9	81	39.4	0	2	90	0.00	29.868 
23:45	44.8	44.8	44.8	81	39.3	0	4	90	0.00	29.866 
23:50	44.5	44.5	44.5	81	39.0	0	3	90	0.00	29.865 
23:55	44.3	44.3	44.3	82	39.2	0	1	90	0.00	29.866 

CoCoRaHS
IN-AL-39
A2 Web Hosting
Creative Commons License
GoDaddy
Look for:

loaded 2017-12-12 07:22:11 • last modified 2010-11-18 10:43:29
Privacy PolicyDisclaimer
• wx.awcolley.com is powered by PmWiki v.2002016 •
• all content (unless otherwise noted) © 2017 A W Colley